createdAt,value
2023-01-01T00:00:42.812Z,9.60
2023-01-01T00:03:09.711Z,9.60
2023-01-01T00:05:38.215Z,9.60
2023-01-01T00:08:05.528Z,9.60
2023-01-01T00:10:32.310Z,9.60
2023-01-01T00:12:59.842Z,9.60
2023-01-01T00:15:27.317Z,9.70
2023-01-01T00:17:55.689Z,9.70
2023-01-01T00:20:22.621Z,9.70
2023-01-01T00:22:56.932Z,9.70
2023-01-01T00:25:24.555Z,9.70
2023-01-01T00:27:51.277Z,9.70
2023-01-01T00:30:18.188Z,9.70
2023-01-01T00:32:55.290Z,9.60
2023-01-01T00:35:26.081Z,9.60
2023-01-01T00:37:53.586Z,9.60
2023-01-01T00:40:20.524Z,9.60
2023-01-01T00:42:47.258Z,9.60
2023-01-01T00:45:20.517Z,9.60
2023-01-01T00:47:48.054Z,9.70
2023-01-01T00:50:14.848Z,9.70
2023-01-01T00:52:42.960Z,9.70
2023-01-01T00:55:10.390Z,9.70
2023-01-01T00:57:37.129Z,9.70
2023-01-01T01:00:05.165Z,9.70
2023-01-01T01:02:32.047Z,9.60
2023-01-01T01:04:58.960Z,9.60
2023-01-01T01:07:25.667Z,9.60
2023-01-01T01:09:53.814Z,9.60
2023-01-01T01:12:20.575Z,9.60
2023-01-01T01:14:47.422Z,9.60
2023-01-01T01:17:14.195Z,9.60
2023-01-01T01:19:41.003Z,9.60
2023-01-01T01:22:07.760Z,9.60
2023-01-01T01:24:34.504Z,9.60
2023-01-01T01:27:02.575Z,9.50
2023-01-01T01:29:29.293Z,9.60
2023-01-01T01:31:56.047Z,9.60
2023-01-01T01:34:27.894Z,9.60
2023-01-01T01:36:55.481Z,9.50
2023-01-01T01:39:22.325Z,9.50
2023-01-01T01:41:49.048Z,9.50
2023-01-01T01:44:49.254Z,9.50
2023-01-01T01:47:17.429Z,9.50
2023-01-01T01:49:45.272Z,9.40
2023-01-01T01:52:12.602Z,9.40
2023-01-01T01:54:40.653Z,9.40
2023-01-01T01:57:09.797Z,9.40
2023-01-01T01:59:39.851Z,9.40
2023-01-01T02:02:15.952Z,9.40
2023-01-01T02:04:43.691Z,9.50
2023-01-01T02:07:14.095Z,9.50
2023-01-01T02:09:40.973Z,9.50
2023-01-01T02:12:07.708Z,9.50
2023-01-01T02:14:34.448Z,9.50
2023-01-01T02:17:07.432Z,9.50
2023-01-01T02:19:45.035Z,9.40
2023-01-01T02:22:16.064Z,9.40
2023-01-01T02:24:57.261Z,9.40
2023-01-01T02:27:34.291Z,9.40
2023-01-01T02:30:05.083Z,9.40
2023-01-01T02:32:36.746Z,9.40
2023-01-01T02:35:08.296Z,9.40
2023-01-01T02:37:35.086Z,9.40
2023-01-01T02:40:02.521Z,9.40
2023-01-01T02:42:30.327Z,9.40
2023-01-01T02:44:59.679Z,9.40
2023-01-01T02:47:27.780Z,9.30
2023-01-01T02:50:00.477Z,9.20
2023-01-01T02:52:45.740Z,9.30
2023-01-01T02:55:24.529Z,9.20
2023-01-01T02:57:56.911Z,9.30
2023-01-01T03:00:23.842Z,9.20
2023-01-01T03:03:06.729Z,9.30
2023-01-01T03:05:40.617Z,9.30
2023-01-01T03:08:13.471Z,9.30
2023-01-01T03:10:47.350Z,9.30
2023-01-01T03:13:21.990Z,9.30
2023-01-01T03:15:55.846Z,9.30
2023-01-01T03:18:29.051Z,9.20
2023-01-01T03:20:59.748Z,9.20
2023-01-01T03:23:31.342Z,9.20
2023-01-01T03:26:03.541Z,9.30
2023-01-01T03:28:35.472Z,9.20
2023-01-01T03:31:02.816Z,9.20
2023-01-01T03:33:34.858Z,9.20
2023-01-01T03:36:06.718Z,9.20
2023-01-01T03:38:38.140Z,9.20
2023-01-01T03:41:10.059Z,9.20
2023-01-01T03:43:44.079Z,9.20
2023-01-01T03:46:14.057Z,9.20
2023-01-01T03:48:42.180Z,9.10
2023-01-01T03:51:16.123Z,9.10
2023-01-01T03:53:44.063Z,9.10
2023-01-01T03:56:16.026Z,9.10
2023-01-01T03:58:47.989Z,9.10
2023-01-01T04:01:20.309Z,9.10
2023-01-01T04:03:49.792Z,9.10
2023-01-01T04:06:16.681Z,9.00
2023-01-01T04:08:43.528Z,9.00
2023-01-01T04:11:15.623Z,8.80
2023-01-01T04:13:46.780Z,8.70
2023-01-01T04:16:13.662Z,8.80
2023-01-01T04:18:40.420Z,8.80
2023-01-01T04:21:08.480Z,8.80
2023-01-01T04:23:35.199Z,8.70
2023-01-01T04:26:01.887Z,8.80
2023-01-01T04:28:28.617Z,8.90
2023-01-01T04:33:21.293Z,8.90
2023-01-01T04:35:47.980Z,8.90
2023-01-01T04:38:16.047Z,8.90
2023-01-01T04:40:42.753Z,8.80
2023-01-01T04:43:09.447Z,8.90
2023-01-01T04:45:36.277Z,8.90
2023-01-01T04:48:04.549Z,8.80
2023-01-01T04:50:31.265Z,8.80
2023-01-01T04:52:58.803Z,8.80
2023-01-01T04:55:26.858Z,8.80
2023-01-01T04:57:53.561Z,8.80
2023-01-01T05:00:20.475Z,8.70
2023-01-01T05:02:47.253Z,8.80
2023-01-01T05:05:14.061Z,8.70
2023-01-01T05:07:40.810Z,8.80
2023-01-01T05:10:08.303Z,8.80
2023-01-01T05:12:36.375Z,8.70
2023-01-01T05:15:03.459Z,8.70
2023-01-01T05:17:30.159Z,8.50
2023-01-01T05:19:56.878Z,8.30
2023-01-01T05:22:23.587Z,8.30
2023-01-01T05:24:50.321Z,8.30
2023-01-01T05:27:17.067Z,8.50
2023-01-01T05:29:45.184Z,8.50
2023-01-01T05:37:03.195Z,8.40
2023-01-01T05:39:29.912Z,8.40
2023-01-01T05:41:57.581Z,8.30
2023-01-01T05:44:24.353Z,8.40
2023-01-01T05:46:52.419Z,8.40
2023-01-01T05:49:19.109Z,8.50
2023-01-01T05:51:45.814Z,8.40
2023-01-01T05:56:38.280Z,8.40
2023-01-01T05:59:05.027Z,8.40
2023-01-01T06:01:31.859Z,8.40
2023-01-01T06:04:00.430Z,8.40
2023-01-01T06:06:29.383Z,8.40
2023-01-01T06:08:57.630Z,8.40
2023-01-01T06:11:24.733Z,8.40
2023-01-01T06:13:53.030Z,8.20
2023-01-01T06:16:19.888Z,8.20
2023-01-01T06:18:46.687Z,8.30
2023-01-01T06:21:16.260Z,8.00
2023-01-01T06:23:43.660Z,8.20
2023-01-01T06:26:12.385Z,8.20
2023-01-01T06:28:39.515Z,8.10
2023-01-01T06:31:08.899Z,8.20
2023-01-01T06:33:36.384Z,8.10
2023-01-01T06:36:04.983Z,8.10
2023-01-01T06:38:33.628Z,8.10
2023-01-01T06:41:02.339Z,7.90
2023-01-01T06:43:31.309Z,7.90
2023-01-01T06:46:02.656Z,8.00
2023-01-01T06:48:30.823Z,8.00
2023-01-01T06:50:57.747Z,8.00
2023-01-01T06:53:25.158Z,8.00
2023-01-01T06:55:57.426Z,8.00
2023-01-01T06:58:24.592Z,7.70
2023-01-01T07:00:51.365Z,7.70
2023-01-01T07:03:18.122Z,7.90
2023-01-01T07:05:44.879Z,8.00
2023-01-01T07:08:11.587Z,8.00
2023-01-01T07:10:38.315Z,8.10
2023-01-01T07:13:06.368Z,8.10
2023-01-01T07:15:33.126Z,8.20
2023-01-01T07:18:00.092Z,8.20
2023-01-01T07:20:27.260Z,8.10
2023-01-01T07:22:54.029Z,8.00
2023-01-01T07:25:20.804Z,8.00
2023-01-01T07:27:47.571Z,7.80
2023-01-01T07:30:15.827Z,7.80
2023-01-01T07:32:42.570Z,7.90
2023-01-01T07:35:09.709Z,7.90
2023-01-01T07:37:36.660Z,7.90
2023-01-01T07:40:03.654Z,8.00
2023-01-01T07:42:30.444Z,7.90
2023-01-01T07:44:57.147Z,7.90
2023-01-01T07:47:26.478Z,7.80
2023-01-01T07:49:53.467Z,7.90
2023-01-01T07:52:20.506Z,8.00
2023-01-01T07:54:47.408Z,8.00
2023-01-01T07:57:14.147Z,8.00
2023-01-01T07:59:40.955Z,8.10
2023-01-01T08:02:07.761Z,8.10
2023-01-01T08:04:35.950Z,8.10
2023-01-01T08:07:02.670Z,8.00
2023-01-01T08:09:29.396Z,8.10
2023-01-01T08:11:56.172Z,8.10
2023-01-01T08:14:22.898Z,8.10
2023-01-01T08:16:49.763Z,8.10
2023-01-01T08:19:16.501Z,8.10
2023-01-01T08:21:44.581Z,8.10
2023-01-01T08:24:11.340Z,8.20
2023-01-01T08:26:38.091Z,8.20
2023-01-01T08:29:09.671Z,8.20
2023-01-01T08:31:36.487Z,8.20
2023-01-01T08:34:03.290Z,8.20
2023-01-01T08:36:30.065Z,8.30
2023-01-01T08:38:58.471Z,8.30
2023-01-01T08:41:25.197Z,8.30
2023-01-01T08:43:51.974Z,8.30
2023-01-01T08:46:18.735Z,8.30
2023-01-01T08:48:45.485Z,8.30
2023-01-01T08:51:12.275Z,8.40
2023-01-01T08:53:38.996Z,8.40
2023-01-01T08:56:09.109Z,8.40
2023-01-01T08:58:36.888Z,8.50
2023-01-01T09:01:04.293Z,8.50
2023-01-01T09:03:31.281Z,8.50
2023-01-01T09:05:58.516Z,8.60
2023-01-01T09:08:26.138Z,8.60
2023-01-01T09:10:53.942Z,8.70
2023-01-01T09:13:22.090Z,8.70
2023-01-01T09:15:49.540Z,8.70
2023-01-01T09:18:16.268Z,8.80
2023-01-01T09:20:43.007Z,8.80
2023-01-01T09:23:11.743Z,8.90
2023-01-01T09:25:38.840Z,8.90
2023-01-01T09:28:07.434Z,9.00
2023-01-01T09:30:36.386Z,8.90
2023-01-01T09:33:03.783Z,9.00
2023-01-01T09:35:31.020Z,9.00
2023-01-01T09:37:57.845Z,9.00
2023-01-01T09:40:32.655Z,9.00
2023-01-01T09:43:09.073Z,9.10
2023-01-01T09:45:42.676Z,9.10
2023-01-01T09:48:13.476Z,9.10
2023-01-01T09:50:42.505Z,9.10
2023-01-01T09:53:14.225Z,9.20
2023-01-01T09:55:47.668Z,9.20
2023-01-01T09:58:15.082Z,9.20
2023-01-01T10:00:47.206Z,9.30
2023-01-01T10:03:27.828Z,9.30
2023-01-01T10:06:01.090Z,9.30
2023-01-01T10:08:41.350Z,9.30
2023-01-01T10:11:17.104Z,9.30
2023-01-01T10:13:45.924Z,9.40
2023-01-01T10:16:24.969Z,9.40
2023-01-01T10:18:56.498Z,9.50
2023-01-01T10:21:27.260Z,9.50
2023-01-01T10:23:58.916Z,9.50
2023-01-01T10:26:28.455Z,9.50
2023-01-01T10:28:59.549Z,9.60
2023-01-01T10:31:32.458Z,9.60
2023-01-01T10:34:01.273Z,9.60
2023-01-01T10:36:28.242Z,9.60
2023-01-01T10:38:54.973Z,9.60
2023-01-01T10:41:21.739Z,9.60
2023-01-01T10:43:49.619Z,9.70
2023-01-01T10:46:21.029Z,9.70
2023-01-01T10:49:09.204Z,9.70
2023-01-01T10:51:37.948Z,9.80
2023-01-01T10:54:04.986Z,9.80
2023-01-01T10:56:40.459Z,9.80
2023-01-01T10:59:35.140Z,9.80
2023-01-01T11:02:18.937Z,9.80
2023-01-01T11:04:47.404Z,9.80
2023-01-01T11:07:24.741Z,9.80
2023-01-01T11:10:03.149Z,9.90
2023-01-01T11:13:03.690Z,9.90
2023-01-01T11:15:23.697Z,9.90
2023-01-01T11:17:50.733Z,10.00
2023-01-01T11:20:20.437Z,10.00
2023-01-01T11:22:49.223Z,10.00
2023-01-01T11:25:19.677Z,10.00
2023-01-01T11:27:47.303Z,10.00
2023-01-01T11:30:22.036Z,10.00
2023-01-01T11:32:55.364Z,10.10
2023-01-01T11:35:26.492Z,10.10
2023-01-01T11:37:55.271Z,10.10
2023-01-01T11:40:24.343Z,10.10
2023-01-01T11:42:58.292Z,10.10
2023-01-01T11:45:31.696Z,10.20
2023-01-01T11:48:03.803Z,10.20
2023-01-01T11:50:34.487Z,10.20
2023-01-01T11:53:26.573Z,10.20
2023-01-01T11:55:59.360Z,10.20
2023-01-01T11:58:32.579Z,10.20
2023-01-01T12:01:02.412Z,10.30
2023-01-01T12:03:34.275Z,10.30
2023-01-01T12:06:07.998Z,10.30
2023-01-01T12:08:37.917Z,10.30
2023-01-01T12:11:12.588Z,10.30
2023-01-01T12:13:47.468Z,10.40
2023-01-01T12:16:20.313Z,10.40
2023-01-01T12:18:52.310Z,10.40
2023-01-01T12:21:25.008Z,10.50
2023-01-01T12:23:52.013Z,10.50
2023-01-01T12:26:23.788Z,10.50
2023-01-01T12:29:26.470Z,10.50
2023-01-01T12:32:03.226Z,10.50
2023-01-01T12:34:34.896Z,10.60
2023-01-01T12:37:10.341Z,10.60
2023-01-01T12:40:25.075Z,10.60
2023-01-01T12:43:00.958Z,10.70
2023-01-01T12:45:52.326Z,10.70
2023-01-01T12:48:39.479Z,10.70
2023-01-01T12:51:15.490Z,10.70
2023-01-01T12:53:55.067Z,10.80
2023-01-01T12:56:25.320Z,10.80
2023-01-01T12:58:56.026Z,10.80
2023-01-01T13:01:31.570Z,10.80
2023-01-01T13:04:02.499Z,10.90
2023-01-01T13:06:33.830Z,10.90
2023-01-01T13:09:06.779Z,10.90
2023-01-01T13:11:39.778Z,10.90
2023-01-01T13:14:10.050Z,10.90
2023-01-01T13:16:39.030Z,11.00
2023-01-01T13:19:06.086Z,11.00
2023-01-01T13:21:33.336Z,11.00
2023-01-01T13:24:21.383Z,11.00
2023-01-01T13:26:49.095Z,11.00
2023-01-01T13:29:35.423Z,11.00
2023-01-01T13:32:10.020Z,11.10
2023-01-01T13:35:00.522Z,11.10
2023-01-01T13:37:45.755Z,11.10
2023-01-01T13:40:47.610Z,11.10
2023-01-01T13:43:29.646Z,11.10
2023-01-01T13:46:11.448Z,11.20
2023-01-01T13:48:59.284Z,11.20
2023-01-01T13:52:09.527Z,11.20
2023-01-01T13:55:00.819Z,11.20
2023-01-01T13:57:53.154Z,11.20
2023-01-01T14:00:22.983Z,11.20
2023-01-01T14:02:54.670Z,11.20
2023-01-01T14:05:29.291Z,11.20
2023-01-01T14:07:56.427Z,11.20
2023-01-01T14:10:28.949Z,11.20
2023-01-01T14:13:14.712Z,11.30
2023-01-01T14:15:51.893Z,11.30
2023-01-01T14:18:20.679Z,11.30
2023-01-01T14:20:50.345Z,11.30
2023-01-01T14:23:23.371Z,11.30
2023-01-01T14:25:51.087Z,11.30
2023-01-01T14:28:24.894Z,11.30
2023-01-01T14:30:53.872Z,11.30
2023-01-01T14:33:26.821Z,11.30
2023-01-01T14:35:56.432Z,11.30
2023-01-01T14:38:25.324Z,11.30
2023-01-01T14:41:06.675Z,11.30
2023-01-01T14:43:36.322Z,11.30
2023-01-01T14:46:10.748Z,11.30
2023-01-01T14:48:42.317Z,11.30
2023-01-01T14:51:13.796Z,11.30
2023-01-01T14:53:42.705Z,11.40
2023-01-01T14:56:09.882Z,11.30
2023-01-01T14:58:41.379Z,11.40
2023-01-01T15:01:16.125Z,11.30
2023-01-01T15:03:59.233Z,11.30
2023-01-01T15:06:26.568Z,11.40
2023-01-01T15:08:54.772Z,11.30
2023-01-01T15:11:28.270Z,11.30
2023-01-01T15:13:58.424Z,11.40
2023-01-01T15:16:26.121Z,11.30
2023-01-01T15:18:54.158Z,11.30
2023-01-01T15:21:37.014Z,11.30
2023-01-01T15:24:09.997Z,11.30
2023-01-01T15:26:41.681Z,11.30
2023-01-01T15:29:16.458Z,11.30
2023-01-01T15:31:48.072Z,11.30
2023-01-01T15:34:21.914Z,11.30
2023-01-01T15:36:51.109Z,11.30
2023-01-01T15:39:18.559Z,11.30
2023-01-01T15:41:47.981Z,11.30
2023-01-01T15:44:28.186Z,11.30
2023-01-01T15:47:07.529Z,11.30
2023-01-01T15:49:34.920Z,11.30
2023-01-01T15:52:05.177Z,11.30
2023-01-01T15:54:37.495Z,11.30
2023-01-01T15:57:10.890Z,11.30
2023-01-01T15:59:43.761Z,11.30
2023-01-01T16:02:17.589Z,11.30
2023-01-01T16:04:49.025Z,11.30
2023-01-01T16:07:19.228Z,11.30
2023-01-01T16:09:50.529Z,11.30
2023-01-01T16:12:20.629Z,11.20
2023-01-01T16:14:49.990Z,11.30
2023-01-01T16:17:20.077Z,11.30
2023-01-01T16:19:48.324Z,11.30
2023-01-01T16:22:16.731Z,11.30
2023-01-01T16:24:44.913Z,11.30
2023-01-01T16:27:11.687Z,11.30
2023-01-01T16:29:40.344Z,11.30
2023-01-01T16:32:16.708Z,11.20
2023-01-01T16:34:43.609Z,11.30
2023-01-01T16:37:10.316Z,11.20
2023-01-01T16:39:37.003Z,11.30
2023-01-01T16:42:04.036Z,11.20
2023-01-01T16:44:30.757Z,11.20
2023-01-01T16:46:57.497Z,11.20
2023-01-01T16:49:25.546Z,11.20
2023-01-01T16:51:52.276Z,11.20
2023-01-01T16:54:18.980Z,11.10
2023-01-01T16:56:45.735Z,11.00
2023-01-01T16:59:12.645Z,11.00
2023-01-01T17:01:39.423Z,11.00
2023-01-01T17:04:06.579Z,11.00
2023-01-01T17:06:34.687Z,11.00
2023-01-01T17:09:01.605Z,11.00
2023-01-01T17:11:28.364Z,10.90
2023-01-01T17:13:55.091Z,10.90
2023-01-01T17:16:27.280Z,10.90
2023-01-01T17:21:44.851Z,10.80
2023-01-01T17:24:11.609Z,10.70
2023-01-01T17:26:38.549Z,10.70
2023-01-01T17:29:05.325Z,10.70
2023-01-01T17:31:32.281Z,10.70
2023-01-01T17:33:59.220Z,10.70
2023-01-01T17:36:26.456Z,10.70
2023-01-01T17:38:54.727Z,10.70
2023-01-01T17:41:21.848Z,10.70
2023-01-01T17:43:50.388Z,10.60
2023-01-01T17:46:19.219Z,10.60
2023-01-01T17:48:46.069Z,10.60
2023-01-01T17:51:14.043Z,10.60
2023-01-01T17:53:41.230Z,10.60
2023-01-01T17:56:10.753Z,10.60
2023-01-01T17:58:37.464Z,10.50
2023-01-01T18:01:13.083Z,10.50
2023-01-01T18:03:40.978Z,10.50
2023-01-01T18:06:08.342Z,10.40
2023-01-01T18:08:35.099Z,10.40
2023-01-01T18:11:01.974Z,10.40
2023-01-01T18:13:30.123Z,10.40
2023-01-01T18:15:59.909Z,10.50
2023-01-01T18:18:26.726Z,10.40
2023-01-01T18:21:01.274Z,10.40
2023-01-01T18:23:32.028Z,10.40
2023-01-01T18:26:00.787Z,10.40
2023-01-01T18:28:27.722Z,10.40
2023-01-01T18:30:56.129Z,10.40
2023-01-01T18:33:22.844Z,10.40
2023-01-01T18:35:49.575Z,10.30
2023-01-01T18:38:17.584Z,10.30
2023-01-01T18:40:58.803Z,10.30
2023-01-01T18:43:25.493Z,10.30
2023-01-01T18:45:52.209Z,10.20
2023-01-01T18:48:21.523Z,10.20
2023-01-01T18:50:48.384Z,10.20
2023-01-01T18:53:16.605Z,10.20
2023-01-01T18:55:43.297Z,10.20
2023-01-01T18:58:16.940Z,10.20
2023-01-01T19:00:44.125Z,10.20
2023-01-01T19:03:14.303Z,10.10
2023-01-01T19:05:42.430Z,10.10
2023-01-01T19:08:15.326Z,10.10
2023-01-01T19:10:46.480Z,10.00
2023-01-01T19:13:19.641Z,10.10
2023-01-01T19:15:48.587Z,10.00
2023-01-01T19:18:18.124Z,10.00
2023-01-01T19:20:46.626Z,10.00
2023-01-01T19:23:18.574Z,10.00
2023-01-01T19:25:45.911Z,10.00
2023-01-01T19:28:40.910Z,10.00
2023-01-01T19:31:09.688Z,9.90
2023-01-01T19:33:36.437Z,9.90
2023-01-01T19:36:04.994Z,9.90
2023-01-01T19:38:31.832Z,9.90
2023-01-01T19:40:58.570Z,9.90
2023-01-01T19:43:25.272Z,9.90
2023-01-01T19:45:52.025Z,9.90
2023-01-01T19:48:18.765Z,9.90
2023-01-01T19:50:46.195Z,9.90
2023-01-01T19:53:14.323Z,9.90
2023-01-01T19:55:41.057Z,9.90
2023-01-01T19:58:08.048Z,9.90
2023-01-01T20:00:34.829Z,9.80
2023-01-01T20:03:26.411Z,9.70
2023-01-01T20:05:48.322Z,9.70
2023-01-01T20:08:16.417Z,9.70
2023-01-01T20:10:43.137Z,9.70
2023-01-01T20:13:09.888Z,9.70
2023-01-01T20:15:39.223Z,9.70
2023-01-01T20:18:09.888Z,9.80
2023-01-01T20:20:37.348Z,9.70
2023-01-01T20:23:04.108Z,9.70
2023-01-01T20:25:32.199Z,9.70
2023-01-01T20:27:58.936Z,9.70
2023-01-01T20:30:25.686Z,9.60
2023-01-01T20:32:52.393Z,9.70
2023-01-01T20:35:19.150Z,9.60
2023-01-01T20:37:45.872Z,9.60
2023-01-01T20:40:12.698Z,9.60
2023-01-01T20:42:40.777Z,9.60
2023-01-01T20:45:09.389Z,9.60
2023-01-01T20:47:36.091Z,9.60
2023-01-01T20:50:02.834Z,9.60
2023-01-01T20:52:29.557Z,9.60
2023-01-01T20:54:56.276Z,9.60
2023-01-01T20:57:22.962Z,9.60
2023-01-01T20:59:51.018Z,9.50
2023-01-01T21:02:17.968Z,9.40
2023-01-01T21:04:44.789Z,9.40
2023-01-01T21:07:12.449Z,9.30
2023-01-01T21:09:40.605Z,9.50
2023-01-01T21:12:08.558Z,9.50
2023-01-01T21:14:35.712Z,9.50
2023-01-01T21:17:17.279Z,9.50
2023-01-01T21:19:44.036Z,9.40
2023-01-01T21:22:13.038Z,9.40
2023-01-01T21:24:40.085Z,9.40
2023-01-01T21:27:13.140Z,9.30
2023-01-01T21:29:44.302Z,9.30
2023-01-01T21:32:18.851Z,9.30
2023-01-01T21:34:45.905Z,9.30
2023-01-01T21:37:17.464Z,9.30
2023-01-01T21:39:44.380Z,9.30
2023-01-01T21:42:22.442Z,9.30
2023-01-01T21:44:51.723Z,9.30
2023-01-01T21:47:23.335Z,9.30
2023-01-01T21:49:52.822Z,9.20
2023-01-01T21:52:21.468Z,9.10
2023-01-01T21:54:48.167Z,9.10
2023-01-01T21:57:17.513Z,9.10
2023-01-01T21:59:46.048Z,9.10
2023-01-01T22:02:39.315Z,9.00
2023-01-01T22:05:29.568Z,9.10
2023-01-01T22:07:58.311Z,8.90
2023-01-01T22:10:30.705Z,9.00
2023-01-01T22:12:59.959Z,9.10
2023-01-01T22:15:37.483Z,8.90
2023-01-01T22:18:18.904Z,8.90
2023-01-01T22:20:46.775Z,9.00
2023-01-01T22:23:30.160Z,9.10
2023-01-01T22:25:56.935Z,9.00
2023-01-01T22:28:25.319Z,8.90
2023-01-01T22:30:55.154Z,8.90
2023-01-01T22:33:29.283Z,8.60
2023-01-01T22:35:56.594Z,8.50
2023-01-01T22:38:29.405Z,8.70
2023-01-01T22:40:56.212Z,8.80
2023-01-01T22:43:30.378Z,8.80
2023-01-01T22:45:57.557Z,8.70
2023-01-01T22:48:33.171Z,8.70
2023-01-01T22:51:05.231Z,8.70
2023-01-01T22:53:31.980Z,8.80
2023-01-01T22:55:58.760Z,8.80
2023-01-01T22:58:25.490Z,8.80
2023-01-01T23:00:52.205Z,8.80
2023-01-01T23:03:18.960Z,8.80
2023-01-01T23:05:47.034Z,8.80
2023-01-01T23:08:13.735Z,8.70
2023-01-01T23:10:40.452Z,8.70
2023-01-01T23:13:07.282Z,8.70
2023-01-01T23:15:34.075Z,8.70
2023-01-01T23:18:00.899Z,8.70
2023-01-01T23:20:27.743Z,8.50
2023-01-01T23:22:56.108Z,8.50
2023-01-01T23:25:23.512Z,8.50
2023-01-01T23:27:52.515Z,8.50
2023-01-01T23:30:20.435Z,8.50
2023-01-01T23:32:47.432Z,8.50
2023-01-01T23:35:14.369Z,8.50
2023-01-01T23:37:41.239Z,8.60
2023-01-01T23:40:10.817Z,8.60
2023-01-01T23:42:37.504Z,8.50
2023-01-01T23:45:05.186Z,8.50
2023-01-01T23:47:32.429Z,8.40
2023-01-01T23:49:59.283Z,8.40
2023-01-01T23:52:26.091Z,8.40
2023-01-01T23:54:52.857Z,8.40
2023-01-01T23:57:20.902Z,8.40
2023-01-01T23:59:47.600Z,8.20
